Terminal Aerodrome Forecast
Issued by NWS Wilmington, NC

Home | Current Version | Previous Version | Text Only | Print | Product List | Glossary On
Versions: 1 2 3 4 5 6 7 8 9 10 11 12 13 14 15 16
000
FTUS42 KILM 031135
TAFILM
TAF
KILM 031135Z 0312/0412 17003KT P6SM VCSH SCT060
     FM031800 22006KT P6SM VCSH SCT040 SCT080
     FM032000 20008KT P6SM VCTS SCT050CB BKN080
     FM040600 31003KT P6SM VCSH SCT080 SCT120=

USA.gov is the U.S. government's official web portal to all federal, state and local government web resources and services.